Time;durP1;ratioP1;P1;durP2;ratioP2;P2;SDS_P1;SDS_P2;PMS_P1;PMS_P2;Temp;Humidity;BMP_temperature;BMP_pressure;BME280_temperature;BME280_humidity;BME280_pressure;Samples;Min_cycle;Max_cycle;Signal;HPM_P1;HPM_P2
2023/10/18 00:01:10;;;;;;;0.90;0.63;;;;;;;-143.84;57.36;45083.34;5092051;28;20468;-62
2023/10/18 00:03:37;;;;;;;0.80;0.40;;;;;;;-143.84;56.80;45087.16;5092317;28;20437;-62
2023/10/18 00:06:15;;;;;;;0.90;0.40;;;;;;;-143.84;56.78;45100.47;5091899;28;20433;-62
2023/10/18 00:08:44;;;;;;;0.80;0.47;;;;;;;-143.84;57.25;45104.28;5091970;28;20445;-62
2023/10/18 00:11:12;;;;;;;0.80;0.30;;;;;;;-143.84;58.52;45064.31;5091783;28;20433;-62
2023/10/18 00:13:39;;;;;;;0.90;0.50;;;;;;;-143.84;60.58;45071.91;5091678;28;20473;-62
2023/10/18 00:16:08;;;;;;;0.80;0.50;;;;;;;-143.84;61.95;45098.56;5091693;28;20882;-62
2023/10/18 00:18:36;;;;;;;0.80;0.40;;;;;;;-143.84;61.47;45098.56;5090683;28;20438;-62
2023/10/18 00:21:05;;;;;;;0.80;0.40;;;;;;;-143.84;62.91;45073.81;5091539;28;20983;-62
2023/10/18 00:23:33;;;;;;;0.80;0.40;;;;;;;-143.84;64.68;45100.47;5091791;28;20801;-62
2023/10/18 00:26:05;;;;;;;0.83;0.50;;;;;;;-143.84;66.70;45090.97;5091474;28;20437;-62
2023/10/18 00:28:36;;;;;;;0.83;0.43;;;;;;;-143.84;68.07;45098.56;5091559;28;20527;-62
2023/10/18 00:31:14;;;;;;;0.80;0.40;;;;;;;-143.84;69.59;45096.66;5091357;28;20960;-62
2023/10/18 00:33:41;;;;;;;0.80;0.40;;;;;;;-143.84;69.66;45094.78;5091625;28;20461;-62
2023/10/18 00:36:10;;;;;;;0.80;0.40;;;;;;;-143.84;70.14;45110.00;5091659;28;20486;-62
2023/10/18 00:38:39;;;;;;;0.80;0.40;;;;;;;-143.84;71.98;45108.09;5091351;28;20436;-62
2023/10/18 00:41:09;;;;;;;0.80;0.40;;;;;;;-143.84;72.28;45100.47;5091343;28;20443;-62
2023/10/18 00:43:38;;;;;;;0.80;0.40;;;;;;;-143.84;72.42;45102.38;5091485;28;20440;-62
2023/10/18 00:46:07;;;;;;;0.80;0.40;;;;;;;-143.84;73.19;45117.63;5091411;28;20440;-62
2023/10/18 00:48:35;;;;;;;0.80;0.40;;;;;;;-143.84;73.39;45180.47;5091135;28;20442;-61
2023/10/18 00:51:03;;;;;;;0.80;0.50;;;;;;;-143.84;73.72;45100.47;5091249;28;21032;-61
2023/10/18 00:53:31;;;;;;;0.80;0.47;;;;;;;-143.84;74.46;45083.34;5091194;28;20532;-61
2023/10/18 00:56:00;;;;;;;0.80;0.40;;;;;;;-143.84;74.96;45167.13;5091239;28;20574;-61
2023/10/18 00:58:29;;;;;;;0.80;0.50;;;;;;;-143.84;76.18;45115.72;5091033;28;21105;-61
2023/10/18 01:00:59;;;;;;;0.80;0.60;;;;;;;-143.84;77.05;45106.19;5091010;28;20506;-61
2023/10/18 01:03:32;;;;;;;0.80;0.50;;;;;;;-143.84;77.85;45115.72;5090875;28;20475;-60
2023/10/18 01:06:04;;;;;;;0.80;0.40;;;;;;;-143.84;79.07;45102.38;5091507;28;20467;-60
2023/10/18 01:08:34;;;;;;;2.50;0.53;;;;;;;-143.84;80.27;45117.63;5091201;28;20468;-61
2023/10/18 01:11:06;;;;;;;0.80;0.53;;;;;;;-143.84;80.28;45106.19;5090872;28;20436;-60
2023/10/18 01:13:36;;;;;;;0.80;0.40;;;;;;;-143.84;80.76;45108.09;5090858;28;20452;-60
2023/10/18 01:16:13;;;;;;;0.80;0.40;;;;;;;-143.84;81.14;45125.22;5090666;28;20468;-60
2023/10/18 01:18:42;;;;;;;0.80;0.40;;;;;;;-143.84;81.23;45136.66;5090757;28;20810;-61
2023/10/18 01:21:17;;;;;;;0.80;0.40;;;;;;;-143.84;81.33;45132.84;5090468;28;20459;-61
2023/10/18 01:23:49;;;;;;;0.90;0.67;;;;;;;-143.84;81.93;45121.44;5090348;28;20507;-61
2023/10/18 01:26:18;;;;;;;0.80;0.40;;;;;;;-143.84;81.90;45130.94;5090418;28;20482;-61
2023/10/18 01:28:46;;;;;;;1.20;1.03;;;;;;;-143.84;82.43;45110.00;5090383;28;20470;-61
2023/10/18 01:31:13;;;;;;;0.80;0.40;;;;;;;-143.84;82.75;45094.78;5090060;28;20458;-61
2023/10/18 01:33:43;;;;;;;0.80;0.40;;;;;;;-143.84;83.11;45113.81;5090334;28;20447;-62
2023/10/18 01:36:14;;;;;;;0.80;0.50;;;;;;;-143.84;83.43;45129.03;5089924;28;20476;-62
2023/10/18 01:38:43;;;;;;;0.83;0.50;;;;;;;-143.84;83.85;45119.53;5090298;28;20441;-62
2023/10/18 01:41:13;;;;;;;0.90;0.50;;;;;;;-143.84;84.15;45110.00;5090048;28;21013;-62
2023/10/18 01:43:44;;;;;;;0.90;0.50;;;;;;;-143.84;84.58;45201.41;5089916;28;20471;-62
2023/10/18 01:46:13;;;;;;;0.80;0.40;;;;;;;-143.84;84.66;45129.03;5090034;28;20447;-62
2023/10/18 01:48:41;;;;;;;0.80;0.40;;;;;;;-143.84;84.86;45121.44;5090191;28;20501;-62
2023/10/18 01:51:12;;;;;;;0.80;0.50;;;;;;;-143.84;85.31;45132.84;5090140;28;20491;-62
2023/10/18 01:53:42;;;;;;;0.90;0.50;;;;;;;-143.84;85.47;45142.38;5090256;28;20913;-62
2023/10/18 01:56:10;;;;;;;0.80;0.50;;;;;;;-143.84;85.48;45134.75;5090264;28;20538;-62
2023/10/18 01:58:38;;;;;;;1.00;0.90;;;;;;;-143.84;85.63;45148.09;5090396;28;20493;-62
2023/10/18 02:01:12;;;;;;;0.80;0.40;;;;;;;-143.84;86.00;45132.84;5090212;28;20463;-62
2023/10/18 02:03:40;;;;;;;1.10;0.90;;;;;;;-143.84;86.08;45134.75;5090094;28;20866;-62
2023/10/18 02:06:08;;;;;;;0.80;0.40;;;;;;;-143.84;86.24;45205.22;5089978;28;20442;-62
2023/10/18 02:08:35;;;;;;;0.80;0.50;;;;;;;-143.84;86.58;45096.66;5090073;28;20450;-62
2023/10/18 02:11:06;;;;;;;0.90;0.53;;;;;;;-143.84;86.88;45106.19;5090034;28;20442;-62
2023/10/18 02:13:33;;;;;;;0.90;0.50;;;;;;;-143.84;87.06;45127.13;5090203;28;20439;-62
2023/10/18 02:16:00;;;;;;;0.80;0.60;;;;;;;-143.84;87.24;45140.47;5089724;28;20471;-62
2023/10/18 02:18:29;;;;;;;0.80;0.40;;;;;;;-143.84;87.18;45119.53;5090084;28;20436;-62
2023/10/18 02:20:56;;;;;;;0.80;0.50;;;;;;;-143.84;87.33;45111.91;5089946;28;21299;-62
2023/10/18 02:23:23;;;;;;;0.80;0.40;;;;;;;-143.84;87.65;45119.53;5090123;28;20432;-62
2023/10/18 02:25:50;;;;;;;0.80;0.40;;;;;;;-143.84;87.91;45123.34;5089548;28;20428;-62
2023/10/18 02:28:27;;;;;;;0.80;0.50;;;;;;;-143.84;88.13;45144.28;5089991;28;20451;-62
2023/10/18 02:31:07;;;;;;;0.80;0.43;;;;;;;-143.84;88.29;45098.56;5089607;28;20438;-62
2023/10/18 02:33:37;;;;;;;0.80;0.50;;;;;;;-143.84;88.52;45121.44;5089860;28;20441;-62
2023/10/18 02:36:10;;;;;;;0.80;0.50;;;;;;;-143.84;88.71;45132.84;5089799;28;21067;-62
2023/10/18 02:38:40;;;;;;;0.80;0.40;;;;;;;-143.84;88.37;45106.19;5089773;28;20843;-62
2023/10/18 02:41:18;;;;;;;0.80;0.40;;;;;;;-143.84;88.29;45130.94;5089700;28;20501;-62
2023/10/18 02:43:48;;;;;;;0.80;0.50;;;;;;;-143.84;88.46;45110.00;5093089;28;20906;-62
2023/10/18 02:46:20;;;;;;;0.90;0.70;;;;;;;-143.84;88.70;45140.47;5093820;28;20984;-62
2023/10/18 02:48:51;;;;;;;0.80;0.40;;;;;;;-143.84;88.63;45136.66;5093560;28;20450;-62
2023/10/18 02:51:22;;;;;;;0.80;0.40;;;;;;;-143.84;88.64;45115.72;5093539;28;20931;-62
2023/10/18 02:53:49;;;;;;;0.80;0.50;;;;;;;-143.84;89.06;45132.84;5093607;28;20449;-62
2023/10/18 02:56:20;;;;;;;0.90;0.50;;;;;;;-143.84;89.15;45140.47;5093556;28;20478;-62
2023/10/18 02:58:47;;;;;;;2.27;0.60;;;;;;;-143.84;89.10;45132.84;5093235;28;20452;-62
2023/10/18 03:01:18;;;;;;;0.90;0.60;;;;;;;-143.84;88.97;45111.91;5093307;28;20439;-62
2023/10/18 03:03:49;;;;;;;0.90;0.50;;;;;;;-143.84;88.73;45140.47;5093208;28;20436;-62
2023/10/18 03:06:19;;;;;;;0.80;0.50;;;;;;;-143.84;88.93;45127.13;5093149;28;20984;-62
2023/10/18 03:08:49;;;;;;;0.80;0.50;;;;;;;-143.84;88.73;45121.44;5093312;28;20469;-62
2023/10/18 03:11:17;;;;;;;0.80;0.40;;;;;;;-143.84;89.10;45132.84;5092838;28;20458;-62
2023/10/18 03:13:44;;;;;;;0.80;0.40;;;;;;;-143.84;89.41;45129.03;5092715;28;20977;-62
2023/10/18 03:16:18;;;;;;;0.80;0.53;;;;;;;-143.84;89.59;45134.75;5092919;28;20448;-62
2023/10/18 03:18:45;;;;;;;0.80;0.40;;;;;;;-143.84;89.64;45142.38;5093018;28;20443;-62
2023/10/18 03:21:20;;;;;;;0.90;0.70;;;;;;;-143.84;89.71;45140.47;5092697;28;20916;-62
2023/10/18 03:23:51;;;;;;;0.80;0.50;;;;;;;-143.84;90.32;45138.56;5089325;28;20474;-61
2023/10/18 03:26:22;;;;;;;0.80;0.50;;;;;;;-143.84;90.36;45129.03;5072456;28;20520;-59
2023/10/18 03:28:50;;;;;;;0.80;0.43;;;;;;;-143.84;90.25;45130.94;5072297;28;21196;-60
2023/10/18 03:31:27;;;;;;;0.80;0.50;;;;;;;-143.84;90.32;45144.28;5072771;28;20513;-60
2023/10/18 03:33:59;;;;;;;0.80;0.40;;;;;;;-143.84;90.25;45123.34;5072543;28;20441;-60
2023/10/18 03:36:27;;;;;;;1.00;0.70;;;;;;;-143.84;90.50;45165.22;5072348;28;20482;-61
2023/10/18 03:38:59;;;;;;;0.80;0.50;;;;;;;-143.84;90.07;45129.03;5072377;28;20440;-60
2023/10/18 03:41:31;;;;;;;1.20;0.50;;;;;;;-143.84;90.02;45123.34;5072423;28;20883;-61
2023/10/18 03:44:06;;;;;;;0.90;0.57;;;;;;;-143.84;90.04;45136.66;5071367;28;20954;-61
2023/10/18 03:46:48;;;;;;;0.80;0.40;;;;;;;-143.84;89.83;45144.28;5084430;28;20508;-61
2023/10/18 03:49:27;;;;;;;0.97;0.73;;;;;;;-143.84;89.90;45106.19;5089898;28;20435;-61
2023/10/18 03:51:56;;;;;;;0.80;0.40;;;;;;;-143.84;89.90;45125.22;5089149;28;20519;-61
2023/10/18 03:54:27;;;;;;;0.80;0.50;;;;;;;-143.84;90.32;45153.81;5092092;28;20431;-62
2023/10/18 03:56:55;;;;;;;0.90;0.80;;;;;;;-143.84;90.52;45138.56;5091707;28;20475;-62
2023/10/18 03:59:24;;;;;;;0.80;0.47;;;;;;;-143.84;90.04;45134.75;5092482;28;20501;-62
2023/10/18 04:02:15;;;;;;;0.80;0.40;;;;;;;-143.84;89.79;45125.22;5091400;28;20446;-62
2023/10/18 04:04:48;;;;;;;0.80;0.40;;;;;;;-143.84;89.42;45130.94;5091853;28;20447;-62
2023/10/18 04:07:19;;;;;;;0.80;0.40;;;;;;;-143.84;89.24;45132.84;5089514;28;20448;-61
2023/10/18 04:09:53;;;;;;;0.80;0.50;;;;;;;-143.84;89.16;45129.03;5091920;28;20473;-61
2023/10/18 04:12:22;;;;;;;0.80;0.40;;;;;;;-143.84;88.94;45100.47;5091353;28;20958;-61
2023/10/18 04:14:56;;;;;;;1.00;0.60;;;;;;;-143.84;88.54;45130.94;5089336;28;20443;-61
2023/10/18 04:17:36;;;;;;;0.80;0.40;;;;;;;-143.84;88.08;45130.94;5091751;28;20490;-61
2023/10/18 04:20:22;;;;;;;0.80;0.40;;;;;;;-143.84;88.04;45142.38;5091951;28;20443;-61
2023/10/18 04:22:49;;;;;;;0.80;0.53;;;;;;;-143.84;87.93;45142.38;5091561;28;21069;-61
2023/10/18 04:25:25;;;;;;;0.80;0.50;;;;;;;-143.84;88.01;45144.28;5091530;28;20432;-61
2023/10/18 04:27:52;;;;;;;0.80;0.40;;;;;;;-143.84;88.11;45140.47;5091354;28;20446;-61
2023/10/18 04:30:22;;;;;;;0.80;0.40;;;;;;;-143.84;88.23;45121.44;5091569;28;20933;-61
2023/10/18 04:32:54;;;;;;;1.47;0.50;;;;;;;-143.84;88.16;45150.00;5091435;28;20444;-62
2023/10/18 04:35:29;;;;;;;0.80;0.60;;;;;;;-143.84;88.25;45127.13;5088091;28;21044;-61
2023/10/18 04:37:56;;;;;;;1.00;0.50;;;;;;;-143.84;88.44;45125.22;5074161;28;20480;-61
2023/10/18 04:40:26;;;;;;;0.80;0.40;;;;;;;-143.84;88.76;45144.28;5071331;28;20472;-61
2023/10/18 04:42:57;;;;;;;0.90;0.60;;;;;;;-143.84;88.73;45161.41;5070916;28;20958;-61
2023/10/18 04:45:24;;;;;;;0.87;0.60;;;;;;;-143.84;88.50;45146.19;5071096;28;20433;-61
2023/10/18 04:47:58;;;;;;;1.00;0.50;;;;;;;-143.84;88.32;45132.84;5070885;28;20449;-61
2023/10/18 04:50:29;;;;;;;0.80;0.50;;;;;;;-143.84;88.32;45144.28;5071023;28;20455;-61
2023/10/18 04:52:58;;;;;;;0.80;0.40;;;;;;;-143.84;88.81;45129.03;5070870;28;20445;-61
2023/10/18 04:55:26;;;;;;;1.00;0.50;;;;;;;-143.84;88.82;45136.66;5070768;28;20502;-61
2023/10/18 04:57:54;;;;;;;0.80;0.50;;;;;;;-143.84;88.89;45136.66;5070706;28;20487;-61
2023/10/18 05:00:35;;;;;;;0.80;0.50;;;;;;;-143.84;88.43;45142.38;5071027;28;20448;-61
2023/10/18 05:03:06;;;;;;;0.80;0.40;;;;;;;-143.84;88.38;45140.47;5070785;28;20456;-62
2023/10/18 05:05:37;;;;;;;0.80;0.40;;;;;;;-143.84;88.51;45146.19;5070473;28;20451;-62
2023/10/18 05:08:05;;;;;;;0.80;0.60;;;;;;;-143.84;88.44;45130.94;5070592;28;20865;-61
2023/10/18 05:10:34;;;;;;;0.80;0.43;;;;;;;-143.84;88.41;45127.13;5070523;28;20515;-62
2023/10/18 05:13:11;;;;;;;0.87;0.50;;;;;;;-143.84;88.39;45138.56;5070560;28;20534;-61
2023/10/18 05:15:43;;;;;;;1.00;0.90;;;;;;;-143.84;88.44;45108.09;5070618;28;20844;-62
2023/10/18 05:18:16;;;;;;;0.80;0.40;;;;;;;-143.84;87.71;45146.19;5070120;28;20487;-62
2023/10/18 05:20:46;;;;;;;0.80;0.40;;;;;;;-143.84;87.67;45138.56;5084673;28;20561;-62
2023/10/18 05:23:21;;;;;;;0.80;0.43;;;;;;;-143.84;87.54;45148.09;5090298;28;20479;-62
2023/10/18 05:25:53;;;;;;;0.80;0.50;;;;;;;-143.84;87.84;45136.66;5090640;28;20447;-62
2023/10/18 05:28:26;;;;;;;0.80;0.50;;;;;;;-143.84;87.77;45106.19;5090571;28;20450;-61
2023/10/18 05:33:48;;;;;;;0.80;0.50;;;;;;;-143.84;87.59;45155.69;5090347;28;20437;-62
2023/10/18 05:36:35;;;;;;;0.80;0.40;;;;;;;-143.84;86.98;45138.56;5090277;28;20441;-62
2023/10/18 05:41:51;;;;;;;0.80;0.40;;;;;;;-143.84;86.61;45115.72;5086169;28;21006;-61
2023/10/18 05:44:17;;;;;;;0.80;0.40;;;;;;;-143.84;86.11;45153.81;5090482;28;20451;-62
2023/10/18 05:46:46;;;;;;;0.80;0.60;;;;;;;-143.84;86.07;45130.94;5090469;28;20823;-62
2023/10/18 05:49:16;;;;;;;0.80;0.40;;;;;;;-143.84;86.02;45117.63;5090431;28;20433;-61
2023/10/18 05:51:52;;;;;;;0.93;0.60;;;;;;;-143.84;85.75;45144.28;5090653;28;20485;-61
2023/10/18 05:54:21;;;;;;;1.20;1.10;;;;;;;-143.84;85.18;45132.84;5090362;28;20434;-62
2023/10/18 05:56:51;;;;;;;0.80;0.50;;;;;;;-143.84;84.57;45140.47;5090274;28;20455;-61
2023/10/18 05:59:34;;;;;;;0.83;0.43;;;;;;;-143.84;84.86;45127.13;5090255;28;20450;-62
2023/10/18 06:02:09;;;;;;;0.80;0.50;;;;;;;-143.84;84.86;45117.63;5090291;28;20916;-62
2023/10/18 06:04:42;;;;;;;0.80;0.50;;;;;;;-143.84;84.13;45111.91;5089770;28;20443;-61
2023/10/18 06:07:10;;;;;;;0.80;0.50;;;;;;;-143.84;83.05;45148.09;5089827;28;20526;-61
2023/10/18 06:09:46;;;;;;;0.80;0.40;;;;;;;-143.84;83.29;45132.84;5089986;28;20471;-61
2023/10/18 06:12:15;;;;;;;0.80;0.40;;;;;;;-143.84;83.26;45119.53;5089847;28;20442;-61
2023/10/18 06:14:44;;;;;;;0.80;0.50;;;;;;;-143.84;83.07;45132.84;5089747;28;20475;-61
2023/10/18 06:17:14;;;;;;;0.83;0.50;;;;;;;-143.84;82.91;45138.56;5091154;28;20485;-61
2023/10/18 06:19:45;;;;;;;0.80;0.40;;;;;;;-143.84;82.50;45140.47;5094268;28;20543;-61
2023/10/18 06:22:28;;;;;;;0.80;0.60;;;;;;;-143.84;82.28;45136.66;5093844;28;20487;-61
2023/10/18 06:24:57;;;;;;;0.80;0.60;;;;;;;-143.84;81.81;45123.34;5094121;28;20431;-61
2023/10/18 06:27:25;;;;;;;1.37;1.13;;;;;;;-143.84;81.64;45100.47;5093927;28;20432;-62
2023/10/18 06:29:54;;;;;;;0.80;0.50;;;;;;;-143.84;81.66;45106.19;5094215;28;20513;-61
2023/10/18 06:32:24;;;;;;;0.80;0.40;;;;;;;-143.84;81.02;45106.19;5094032;28;20440;-61
2023/10/18 06:34:57;;;;;;;1.00;0.70;;;;;;;-143.84;79.59;45089.06;5093879;28;20519;-62
2023/10/18 06:37:25;;;;;;;2.20;0.97;;;;;;;-143.84;78.00;45121.44;5093832;28;20579;-61
2023/10/18 06:39:58;;;;;;;0.80;0.47;;;;;;;-143.84;76.70;45104.28;5093766;28;20441;-62
2023/10/18 06:42:28;;;;;;;0.93;0.50;;;;;;;-143.84;76.18;45102.38;5093903;28;20427;-62
2023/10/18 06:44:56;;;;;;;1.13;0.57;;;;;;;-143.84;74.37;45134.75;5093744;28;21030;-62
2023/10/18 06:47:30;;;;;;;0.80;0.40;;;;;;;-143.84;73.23;45102.38;5093552;28;20446;-62
2023/10/18 06:50:04;;;;;;;0.80;0.43;;;;;;;-143.84;73.02;45092.88;5093846;28;20470;-62
2023/10/18 06:52:44;;;;;;;0.80;0.40;;;;;;;-143.84;72.57;45098.56;5093585;28;20444;-62
2023/10/18 06:55:15;;;;;;;0.80;0.50;;;;;;;-143.84;72.39;45098.56;5093468;28;20948;-62
2023/10/18 06:57:49;;;;;;;0.80;0.40;;;;;;;-143.84;72.42;45085.25;5093376;28;20866;-62
2023/10/18 07:00:17;;;;;;;0.90;0.50;;;;;;;-143.84;72.42;45094.78;5093397;28;20449;-62
2023/10/18 07:02:45;;;;;;;0.80;0.40;;;;;;;-143.84;72.15;45092.88;5093287;28;20446;-62
2023/10/18 07:05:12;;;;;;;0.80;0.40;;;;;;;-143.84;70.40;45075.72;5093148;28;20444;-62
2023/10/18 07:07:39;;;;;;;0.80;0.40;;;;;;;-143.84;70.94;45096.66;5093203;28;20469;-62
2023/10/18 07:10:19;;;;;;;0.80;0.40;;;;;;;-143.84;69.46;45073.81;5093123;28;20950;-62
2023/10/18 07:12:52;;;;;;;0.93;0.70;;;;;;;-143.84;69.06;45090.97;5093149;28;20449;-62
2023/10/18 07:15:22;;;;;;;0.83;0.47;;;;;;;-143.84;67.94;45047.16;5093365;28;20527;-62
2023/10/18 07:17:52;;;;;;;1.00;0.50;;;;;;;-143.84;67.73;45073.81;5093146;28;20478;-62
2023/10/18 07:20:21;;;;;;;0.80;0.30;;;;;;;-143.84;67.52;45117.63;5092960;28;20486;-62
2023/10/18 07:22:54;;;;;;;0.80;0.40;;;;;;;-143.84;66.36;45096.66;5092670;28;20980;-62
2023/10/18 07:25:27;;;;;;;0.80;0.40;;;;;;;-143.84;66.97;45083.34;5092907;28;20444;-62
2023/10/18 07:27:56;;;;;;;0.80;0.40;;;;;;;-143.84;67.03;45096.66;5092441;28;20455;-62
2023/10/18 07:30:37;;;;;;;0.80;0.40;;;;;;;-143.84;67.44;45094.78;5092884;28;20444;-62
2023/10/18 07:33:09;;;;;;;0.80;0.50;;;;;;;-143.84;65.99;45098.56;5092749;28;20432;-62
2023/10/18 07:35:39;;;;;;;0.90;0.53;;;;;;;-143.84;65.00;45096.66;5093023;28;20462;-62
2023/10/18 07:38:09;;;;;;;0.80;0.50;;;;;;;-143.84;64.09;45102.38;5092663;28;20846;-62
2023/10/18 07:40:40;;;;;;;0.80;0.50;;;;;;;-143.84;64.16;45075.72;5092524;28;20440;-62
2023/10/18 07:43:12;;;;;;;0.80;0.40;;;;;;;-143.84;63.68;45060.50;5092675;28;20489;-62
2023/10/18 07:45:40;;;;;;;0.90;0.53;;;;;;;-143.84;60.90;45071.91;5092485;28;20444;-62
2023/10/18 07:48:11;;;;;;;0.80;0.50;;;;;;;-143.84;60.62;45096.66;5092617;28;20517;-62
2023/10/18 07:50:49;;;;;;;0.97;0.77;;;;;;;-143.84;59.41;45073.81;5092882;28;20436;-62
2023/10/18 07:53:20;;;;;;;0.90;0.57;;;;;;;-143.84;58.06;45071.91;5092504;28;20824;-62
2023/10/18 07:55:53;;;;;;;0.80;0.40;;;;;;;-143.84;58.82;45079.53;5092429;28;20467;-62
2023/10/18 07:58:25;;;;;;;0.90;0.50;;;;;;;-143.84;58.17;45070.00;5092350;28;20584;-62
2023/10/18 08:03:42;;;;;;;6.03;0.60;;;;;;;-143.84;55.38;45083.34;5086548;28;20453;-62
2023/10/18 08:06:16;;;;;;;0.80;0.47;;;;;;;-143.84;54.35;45060.50;5092185;28;20435;-62
2023/10/18 08:08:46;;;;;;;0.80;0.40;;;;;;;-143.84;53.63;45068.13;5092102;28;20519;-62
2023/10/18 08:11:14;;;;;;;0.80;0.40;;;;;;;-143.84;51.24;45071.91;5092097;28;20444;-62
2023/10/18 08:13:46;;;;;;;0.80;0.40;;;;;;;-143.84;50.97;45073.81;5092232;28;20877;-62
2023/10/18 08:16:19;;;;;;;1.13;0.57;;;;;;;-143.84;50.00;45070.00;5092003;28;20555;-62
2023/10/18 08:18:52;;;;;;;0.90;0.50;;;;;;;-143.84;50.30;45035.75;5091772;28;20480;-62
2023/10/18 08:21:28;;;;;;;0.80;0.50;;;;;;;-143.84;48.31;45054.78;5091694;28;20490;-62
2023/10/18 08:23:56;;;;;;;0.80;0.40;;;;;;;-143.84;47.91;45068.13;5091781;28;20446;-62
2023/10/18 08:26:26;;;;;;;0.80;0.53;;;;;;;-143.84;46.51;45068.13;5092076;28;20501;-62
2023/10/18 08:28:55;;;;;;;0.80;0.40;;;;;;;-143.84;45.45;45056.69;5091775;28;20432;-62
2023/10/18 08:31:33;;;;;;;0.90;0.50;;;;;;;-143.84;44.96;45031.94;5091632;28;20484;-62
2023/10/18 08:34:05;;;;;;;0.80;0.40;;;;;;;-143.84;44.68;45045.25;5091962;28;20454;-62
2023/10/18 08:36:32;;;;;;;0.80;0.40;;;;;;;-143.84;43.99;45058.59;5091678;28;20975;-62
2023/10/18 08:39:01;;;;;;;0.80;0.40;;;;;;;-143.84;42.90;45047.16;5091388;28;21019;-62
2023/10/18 08:41:34;;;;;;;0.80;0.40;;;;;;;-143.84;42.28;45037.66;5090514;28;20440;-62
2023/10/18 08:44:08;;;;;;;0.90;0.43;;;;;;;-143.84;43.81;45043.34;5091146;28;20815;-62
2023/10/18 08:46:41;;;;;;;0.80;0.40;;;;;;;-143.84;41.02;45037.66;5091081;28;20443;-62
2023/10/18 08:49:12;;;;;;;0.80;0.37;;;;;;;-143.84;41.67;45039.53;5091141;28;20447;-62
2023/10/18 08:51:45;;;;;;;1.00;0.80;;;;;;;-143.84;42.00;45052.88;5091057;28;20439;-62
2023/10/18 08:54:20;;;;;;;1.20;0.60;;;;;;;-143.84;41.85;45047.16;5091161;28;20440;-62
2023/10/18 08:56:48;;;;;;;1.57;0.60;;;;;;;-143.84;41.15;45028.13;5091638;28;20432;-62
2023/10/18 08:59:19;;;;;;;0.80;0.40;;;;;;;-143.84;42.33;45068.13;5091129;28;20571;-62
2023/10/18 09:04:31;;;;;;;0.80;0.40;;;;;;;-143.84;41.13;45062.41;5091140;28;20431;-62
2023/10/18 09:07:01;;;;;;;0.80;0.40;;;;;;;-143.84;39.89;45043.34;5091214;28;20443;-62
2023/10/18 09:09:34;;;;;;;0.80;0.40;;;;;;;-143.84;41.13;45030.03;5090991;28;20438;-62
2023/10/18 09:12:14;;;;;;;0.80;0.40;;;;;;;-143.84;41.66;45030.03;5090957;28;21008;-62
2023/10/18 09:14:46;;;;;;;0.80;0.30;;;;;;;-143.84;40.49;45028.13;5090860;28;20446;-62
2023/10/18 09:17:21;;;;;;;1.83;1.03;;;;;;;-143.84;40.93;45031.94;5090511;28;20448;-62
2023/10/18 09:19:51;;;;;;;0.80;0.30;;;;;;;-143.84;40.37;45037.66;5090567;28;20493;-62
2023/10/18 09:22:18;;;;;;;0.80;0.40;;;;;;;-143.84;40.48;45026.22;5090560;28;20483;-62
2023/10/18 09:24:46;;;;;;;0.80;0.40;;;;;;;-143.84;40.96;45018.59;5090895;28;21108;-62
2023/10/18 09:27:13;;;;;;;0.90;0.50;;;;;;;-143.84;40.62;45022.41;5090776;28;21265;-62
2023/10/18 09:29:44;;;;;;;0.80;0.40;;;;;;;-143.84;38.02;45012.88;5090421;28;20448;-62
2023/10/18 09:32:24;;;;;;;0.87;0.40;;;;;;;-143.84;39.24;45014.78;5090366;28;20444;-62
2023/10/18 09:34:51;;;;;;;0.80;0.40;;;;;;;-143.84;37.65;45016.69;5090461;28;20468;-62
2023/10/18 09:37:29;;;;;;;0.80;0.40;;;;;;;-143.84;38.57;45030.03;5090715;28;20801;-62
2023/10/18 09:39:56;;;;;;;0.80;0.40;;;;;;;-143.84;37.82;45018.59;5089969;28;20540;-62
2023/10/18 09:42:23;;;;;;;0.90;0.60;;;;;;;-143.84;37.78;45024.31;5090130;28;20440;-62
2023/10/18 09:44:52;;;;;;;0.87;0.50;;;;;;;-143.84;37.92;45039.53;5090182;28;20440;-62
2023/10/18 09:47:23;;;;;;;0.80;0.53;;;;;;;-143.84;38.75;45043.34;5090108;28;20497;-62
2023/10/18 09:49:51;;;;;;;0.80;0.40;;;;;;;-143.84;39.01;45026.22;5090078;28;20452;-62
2023/10/18 09:52:19;;;;;;;0.90;0.40;;;;;;;-143.84;38.78;45024.31;5089943;28;20937;-62
2023/10/18 09:54:50;;;;;;;0.90;0.50;;;;;;;-143.84;39.65;45035.75;5089922;28;20444;-62
2023/10/18 09:57:23;;;;;;;0.90;0.40;;;;;;;-143.84;39.85;45041.44;5089957;28;20493;-62
2023/10/18 09:59:55;;;;;;;0.90;0.70;;;;;;;-143.84;40.26;45047.16;5089981;28;20479;-62
2023/10/18 10:02:24;;;;;;;0.80;0.40;;;;;;;-143.84;40.54;45026.22;5090139;28;20440;-62
2023/10/18 10:04:55;;;;;;;0.80;0.40;;;;;;;-143.84;40.44;45043.34;5090087;28;20444;-62
2023/10/18 10:07:37;;;;;;;0.80;0.40;;;;;;;-143.84;39.68;45041.44;5090123;28;20497;-62
2023/10/18 10:10:09;;;;;;;1.30;0.50;;;;;;;-143.84;39.44;45039.53;5090016;28;20474;-62
2023/10/18 10:12:41;;;;;;;0.80;0.40;;;;;;;-143.84;38.69;45047.16;5090274;28;20440;-62
2023/10/18 10:15:14;;;;;;;0.90;0.40;;;;;;;-143.84;40.09;45033.84;5090048;28;20497;-62
2023/10/18 10:17:50;;;;;;;0.80;0.40;;;;;;;-143.84;40.31;44999.56;5089956;28;20524;-62
2023/10/18 10:20:21;;;;;;;0.80;0.50;;;;;;;-143.84;39.64;45035.75;5089902;28;20491;-62
2023/10/18 10:22:50;;;;;;;0.80;0.40;;;;;;;-143.84;40.31;45035.75;5089685;28;20490;-62
2023/10/18 10:25:20;;;;;;;0.80;0.40;;;;;;;-143.84;40.84;45035.75;5089937;28;20945;-62
2023/10/18 10:27:53;;;;;;;1.10;0.40;;;;;;;-143.84;41.23;45022.41;5089814;28;20435;-62
2023/10/18 10:30:25;;;;;;;0.80;0.50;;;;;;;-143.84;41.05;45037.66;5089930;28;20790;-62
2023/10/18 10:32:53;;;;;;;0.80;0.50;;;;;;;-143.84;40.72;45033.84;5089728;28;20444;-62
2023/10/18 10:35:25;;;;;;;0.80;0.40;;;;;;;-143.84;40.80;45026.22;5089985;28;20444;-62
2023/10/18 10:37:53;;;;;;;0.80;0.40;;;;;;;-143.84;41.53;45043.34;5090007;28;20447;-62
2023/10/18 10:40:36;;;;;;;0.90;0.50;;;;;;;-143.84;41.80;45052.88;5089490;28;20479;-62
2023/10/18 10:43:08;;;;;;;0.80;0.40;;;;;;;-143.84;41.74;45026.22;5089797;28;20542;-62
2023/10/18 10:45:41;;;;;;;0.80;0.37;;;;;;;-143.84;41.95;45052.88;5089600;28;20436;-62
2023/10/18 10:48:45;;;;;;;0.80;0.40;;;;;;;-143.84;41.68;45026.22;5089705;28;20808;-62
2023/10/18 10:51:20;;;;;;;0.80;0.30;;;;;;;-143.84;42.11;45054.78;5089907;28;20463;-62
2023/10/18 10:53:50;;;;;;;0.80;0.40;;;;;;;-143.84;42.88;45083.34;5089580;28;20432;-62
2023/10/18 10:56:21;;;;;;;0.80;0.30;;;;;;;-143.84;43.16;45077.63;5089570;28;20808;-62
2023/10/18 10:58:55;;;;;;;0.80;0.40;;;;;;;-143.84;43.17;45075.72;5089384;28;20487;-62
2023/10/18 11:01:40;;;;;;;0.90;0.50;;;;;;;-143.84;44.31;45071.91;5089792;28;20436;-62
2023/10/18 11:04:23;;;;;;;0.90;0.40;;;;;;;-143.84;43.92;45062.41;5091931;28;20439;-62
2023/10/18 11:06:53;;;;;;;0.80;0.30;;;;;;;-143.84;43.58;45094.78;5093536;28;20444;-62
2023/10/18 11:09:21;;;;;;;0.80;0.40;;;;;;;-143.84;43.86;45054.78;5093292;28;20912;-62
2023/10/18 11:11:49;;;;;;;0.80;0.40;;;;;;;-143.84;43.83;45081.44;5093053;28;20436;-62
2023/10/18 11:14:18;;;;;;;0.90;0.60;;;;;;;-143.84;44.29;45050.97;5093148;28;20436;-62
2023/10/18 11:16:53;;;;;;;0.80;0.40;;;;;;;-143.84;44.47;45092.88;5093205;28;20444;-62
2023/10/18 11:19:28;;;;;;;0.80;0.40;;;;;;;-143.84;45.01;45075.72;5092994;28;20853;-62
2023/10/18 11:21:58;;;;;;;0.80;0.50;;;;;;;-143.84;45.57;45062.41;5092817;28;20988;-62
2023/10/18 11:24:27;;;;;;;1.10;1.00;;;;;;;-143.84;46.05;45043.34;5092852;28;20475;-62
2023/10/18 11:26:54;;;;;;;0.80;0.40;;;;;;;-143.84;45.70;45054.78;5092863;28;20514;-62
2023/10/18 11:29:24;;;;;;;0.80;0.40;;;;;;;-143.84;45.50;45068.13;5092912;28;20945;-62
2023/10/18 11:31:55;;;;;;;0.80;0.40;;;;;;;-143.84;47.00;45073.81;5092729;28;20447;-62
2023/10/18 11:34:23;;;;;;;0.80;0.40;;;;;;;-143.84;47.73;45062.41;5092296;28;20970;-62
2023/10/18 11:36:51;;;;;;;0.80;0.40;;;;;;;-143.84;48.27;45096.66;5092608;28;20797;-62
2023/10/18 11:39:18;;;;;;;0.80;0.40;;;;;;;-143.84;48.17;45075.72;5092367;28;20549;-62
2023/10/18 11:41:49;;;;;;;0.83;0.50;;;;;;;-143.84;48.27;45073.81;5092297;28;20451;-61
2023/10/18 11:44:27;;;;;;;1.00;0.50;;;;;;;-143.84;47.60;45060.50;5092433;28;20447;-61
2023/10/18 11:47:03;;;;;;;0.80;0.40;;;;;;;-143.84;47.94;45098.56;5092324;28;20905;-61